sensor_id;sensor_type;location;lat;lon;timestamp;temperature;humidity
42979;DHT22;28616;44.746;19.678;2023-04-24T00:02:06;14.10;82.80
42979;DHT22;28616;44.746;19.678;2023-04-24T00:04:32;14.10;83.00
42979;DHT22;28616;44.746;19.678;2023-04-24T00:06:58;14.10;84.10
42979;DHT22;28616;44.746;19.678;2023-04-24T00:09:25;14.20;85.30
42979;DHT22;28616;44.746;19.678;2023-04-24T00:11:52;14.20;84.60
42979;DHT22;28616;44.746;19.678;2023-04-24T00:14:19;14.10;84.90
42979;DHT22;28616;44.746;19.678;2023-04-24T00:16:44;14.10;85.20
42979;DHT22;28616;44.746;19.678;2023-04-24T00:19:11;14.10;86.90
42979;DHT22;28616;44.746;19.678;2023-04-24T00:21:38;14.20;86.60
42979;DHT22;28616;44.746;19.678;2023-04-24T00:24:04;14.20;85.00
42979;DHT22;28616;44.746;19.678;2023-04-24T00:26:29;14.20;84.60
42979;DHT22;28616;44.746;19.678;2023-04-24T00:28:55;14.20;85.30
42979;DHT22;28616;44.746;19.678;2023-04-24T00:31:21;14.20;85.80
42979;DHT22;28616;44.746;19.678;2023-04-24T00:33:47;14.20;86.50
42979;DHT22;28616;44.746;19.678;2023-04-24T00:36:12;14.20;86.00
42979;DHT22;28616;44.746;19.678;2023-04-24T00:38:39;14.20;85.30
42979;DHT22;28616;44.746;19.678;2023-04-24T00:41:05;14.20;86.10
42979;DHT22;28616;44.746;19.678;2023-04-24T00:43:31;14.20;86.20
42979;DHT22;28616;44.746;19.678;2023-04-24T00:45:57;14.20;85.80
42979;DHT22;28616;44.746;19.678;2023-04-24T00:48:25;14.30;85.70
42979;DHT22;28616;44.746;19.678;2023-04-24T00:50:51;14.30;86.00
42979;DHT22;28616;44.746;19.678;2023-04-24T00:53:17;14.30;86.50
42979;DHT22;28616;44.746;19.678;2023-04-24T00:55:43;14.30;86.50
42979;DHT22;28616;44.746;19.678;2023-04-24T00:58:09;14.30;84.60
42979;DHT22;28616;44.746;19.678;2023-04-24T01:00:35;14.40;84.90
42979;DHT22;28616;44.746;19.678;2023-04-24T01:03:01;14.40;85.40
42979;DHT22;28616;44.746;19.678;2023-04-24T01:05:30;14.40;85.40
42979;DHT22;28616;44.746;19.678;2023-04-24T01:07:56;14.50;85.50
42979;DHT22;28616;44.746;19.678;2023-04-24T01:10:23;14.50;86.30
42979;DHT22;28616;44.746;19.678;2023-04-24T01:12:50;14.50;87.20
42979;DHT22;28616;44.746;19.678;2023-04-24T01:15:16;14.50;86.30
42979;DHT22;28616;44.746;19.678;2023-04-24T01:17:42;14.50;87.60
42979;DHT22;28616;44.746;19.678;2023-04-24T01:20:08;14.50;86.90
42979;DHT22;28616;44.746;19.678;2023-04-24T01:22:34;14.50;86.10
42979;DHT22;28616;44.746;19.678;2023-04-24T01:25:00;14.50;87.20
42979;DHT22;28616;44.746;19.678;2023-04-24T01:27:26;14.50;87.90
42979;DHT22;28616;44.746;19.678;2023-04-24T01:29:52;14.40;89.10
42979;DHT22;28616;44.746;19.678;2023-04-24T01:32:19;14.30;89.90
42979;DHT22;28616;44.746;19.678;2023-04-24T01:34:45;14.30;89.50
42979;DHT22;28616;44.746;19.678;2023-04-24T01:37:12;14.20;90.10
42979;DHT22;28616;44.746;19.678;2023-04-24T01:39:38;14.10;90.40
42979;DHT22;28616;44.746;19.678;2023-04-24T01:42:04;14.10;91.00
42979;DHT22;28616;44.746;19.678;2023-04-24T01:44:31;14.10;91.90
42979;DHT22;28616;44.746;19.678;2023-04-24T01:46:57;14.00;92.00
42979;DHT22;28616;44.746;19.678;2023-04-24T01:49:23;14.00;92.70
42979;DHT22;28616;44.746;19.678;2023-04-24T01:51:49;13.90;93.20
42979;DHT22;28616;44.746;19.678;2023-04-24T01:54:14;13.90;93.50
42979;DHT22;28616;44.746;19.678;2023-04-24T01:56:41;13.80;94.00
42979;DHT22;28616;44.746;19.678;2023-04-24T01:59:10;13.90;95.50
42979;DHT22;28616;44.746;19.678;2023-04-24T02:01:36;13.80;96.20
42979;DHT22;28616;44.746;19.678;2023-04-24T02:04:04;13.80;97.50
42979;DHT22;28616;44.746;19.678;2023-04-24T02:06:30;13.80;98.70
42979;DHT22;28616;44.746;19.678;2023-04-24T02:08:57;13.80;98.90
42979;DHT22;28616;44.746;19.678;2023-04-24T02:11:23;13.80;99.90
42979;DHT22;28616;44.746;19.678;2023-04-24T02:13:49;13.70;99.90
42979;DHT22;28616;44.746;19.678;2023-04-24T02:16:16;13.70;99.90
42979;DHT22;28616;44.746;19.678;2023-04-24T02:18:41;13.70;99.90
42979;DHT22;28616;44.746;19.678;2023-04-24T02:21:07;13.60;99.90
42979;DHT22;28616;44.746;19.678;2023-04-24T02:23:33;13.60;99.90
42979;DHT22;28616;44.746;19.678;2023-04-24T02:25:59;13.60;99.90
42979;DHT22;28616;44.746;19.678;2023-04-24T02:28:24;13.50;99.90
42979;DHT22;28616;44.746;19.678;2023-04-24T02:30:50;13.50;99.90
42979;DHT22;28616;44.746;19.678;2023-04-24T02:33:16;13.40;99.90
42979;DHT22;28616;44.746;19.678;2023-04-24T02:35:42;13.50;99.90
42979;DHT22;28616;44.746;19.678;2023-04-24T02:38:08;13.40;99.90
42979;DHT22;28616;44.746;19.678;2023-04-24T02:40:33;13.40;99.90
42979;DHT22;28616;44.746;19.678;2023-04-24T02:42:59;13.40;99.90
42979;DHT22;28616;44.746;19.678;2023-04-24T02:45:25;13.40;99.90
42979;DHT22;28616;44.746;19.678;2023-04-24T02:47:51;13.30;99.90
42979;DHT22;28616;44.746;19.678;2023-04-24T02:50:17;13.30;99.90
42979;DHT22;28616;44.746;19.678;2023-04-24T02:52:42;13.30;99.90
42979;DHT22;28616;44.746;19.678;2023-04-24T02:55:11;13.30;99.90
42979;DHT22;28616;44.746;19.678;2023-04-24T02:57:36;13.30;99.90
42979;DHT22;28616;44.746;19.678;2023-04-24T03:00:03;13.40;99.90
42979;DHT22;28616;44.746;19.678;2023-04-24T03:02:29;13.30;99.90
42979;DHT22;28616;44.746;19.678;2023-04-24T03:04:55;13.30;99.90
42979;DHT22;28616;44.746;19.678;2023-04-24T03:07:20;13.30;99.90
42979;DHT22;28616;44.746;19.678;2023-04-24T03:09:47;13.30;99.90
42979;DHT22;28616;44.746;19.678;2023-04-24T03:12:13;13.40;99.90
42979;DHT22;28616;44.746;19.678;2023-04-24T03:14:39;13.30;99.90
42979;DHT22;28616;44.746;19.678;2023-04-24T03:17:04;13.30;99.90
42979;DHT22;28616;44.746;19.678;2023-04-24T03:19:30;13.30;99.90
42979;DHT22;28616;44.746;19.678;2023-04-24T03:21:56;13.30;99.90
42979;DHT22;28616;44.746;19.678;2023-04-24T03:24:22;13.30;99.90
42979;DHT22;28616;44.746;19.678;2023-04-24T03:26:48;13.30;99.90
42979;DHT22;28616;44.746;19.678;2023-04-24T03:29:13;13.30;99.90
42979;DHT22;28616;44.746;19.678;2023-04-24T03:31:39;13.30;99.90
42979;DHT22;28616;44.746;19.678;2023-04-24T03:34:05;13.30;99.90
42979;DHT22;28616;44.746;19.678;2023-04-24T03:36:31;13.30;99.90
42979;DHT22;28616;44.746;19.678;2023-04-24T03:38:57;13.30;99.90
42979;DHT22;28616;44.746;19.678;2023-04-24T03:41:22;13.30;99.90
42979;DHT22;28616;44.746;19.678;2023-04-24T03:43:48;13.30;99.90
42979;DHT22;28616;44.746;19.678;2023-04-24T03:46:14;13.30;99.90
42979;DHT22;28616;44.746;19.678;2023-04-24T03:48:40;13.30;99.90
42979;DHT22;28616;44.746;19.678;2023-04-24T03:51:06;13.30;99.90
42979;DHT22;28616;44.746;19.678;2023-04-24T03:53:32;13.30;99.90
42979;DHT22;28616;44.746;19.678;2023-04-24T03:55:57;13.30;99.90
42979;DHT22;28616;44.746;19.678;2023-04-24T03:58:23;13.30;99.90
42979;DHT22;28616;44.746;19.678;2023-04-24T04:00:49;13.40;99.90
42979;DHT22;28616;44.746;19.678;2023-04-24T04:03:15;13.40;99.90
42979;DHT22;28616;44.746;19.678;2023-04-24T04:05:44;13.40;99.90
42979;DHT22;28616;44.746;19.678;2023-04-24T04:08:10;13.40;99.90
42979;DHT22;28616;44.746;19.678;2023-04-24T04:10:36;13.40;99.90
42979;DHT22;28616;44.746;19.678;2023-04-24T04:13:01;13.40;99.90
42979;DHT22;28616;44.746;19.678;2023-04-24T04:15:30;13.40;99.90
42979;DHT22;28616;44.746;19.678;2023-04-24T04:17:55;13.50;99.90
42979;DHT22;28616;44.746;19.678;2023-04-24T04:23:45;13.40;99.90
42979;DHT22;28616;44.746;19.678;2023-04-24T04:26:11;13.20;99.90
42979;DHT22;28616;44.746;19.678;2023-04-24T04:28:38;13.20;99.90
42979;DHT22;28616;44.746;19.678;2023-04-24T04:31:05;13.30;99.90
42979;DHT22;28616;44.746;19.678;2023-04-24T04:33:31;13.30;99.90
42979;DHT22;28616;44.746;19.678;2023-04-24T04:35:57;13.30;99.90
42979;DHT22;28616;44.746;19.678;2023-04-24T04:38:23;13.30;99.90
42979;DHT22;28616;44.746;19.678;2023-04-24T04:40:49;13.40;99.90
42979;DHT22;28616;44.746;19.678;2023-04-24T04:43:15;13.40;99.90
42979;DHT22;28616;44.746;19.678;2023-04-24T04:45:44;13.50;99.90
42979;DHT22;28616;44.746;19.678;2023-04-24T04:48:31;13.50;99.90
42979;DHT22;28616;44.746;19.678;2023-04-24T04:50:57;13.50;99.90
42979;DHT22;28616;44.746;19.678;2023-04-24T04:53:23;13.60;99.90
42979;DHT22;28616;44.746;19.678;2023-04-24T04:55:52;13.70;99.90
42979;DHT22;28616;44.746;19.678;2023-04-24T04:58:18;13.70;99.90
42979;DHT22;28616;44.746;19.678;2023-04-24T05:00:44;13.70;99.90
42979;DHT22;28616;44.746;19.678;2023-04-24T05:03:09;13.70;99.90
42979;DHT22;28616;44.746;19.678;2023-04-24T05:05:35;13.80;99.90
42979;DHT22;28616;44.746;19.678;2023-04-24T05:08:08;13.80;99.90
42979;DHT22;28616;44.746;19.678;2023-04-24T05:10:34;13.90;99.90
42979;DHT22;28616;44.746;19.678;2023-04-24T05:13:02;13.90;99.90
42979;DHT22;28616;44.746;19.678;2023-04-24T05:15:29;14.00;99.90
42979;DHT22;28616;44.746;19.678;2023-04-24T05:17:56;14.20;99.90
42979;DHT22;28616;44.746;19.678;2023-04-24T05:20:22;14.30;99.90
42979;DHT22;28616;44.746;19.678;2023-04-24T05:22:48;14.30;99.90
42979;DHT22;28616;44.746;19.678;2023-04-24T05:25:14;14.40;99.90
42979;DHT22;28616;44.746;19.678;2023-04-24T05:27:40;14.50;99.90
42979;DHT22;28616;44.746;19.678;2023-04-24T05:30:06;14.50;99.90
42979;DHT22;28616;44.746;19.678;2023-04-24T05:32:33;14.50;99.90
42979;DHT22;28616;44.746;19.678;2023-04-24T05:34:58;14.40;99.90
42979;DHT22;28616;44.746;19.678;2023-04-24T05:37:24;14.50;99.90
42979;DHT22;28616;44.746;19.678;2023-04-24T05:39:53;14.60;99.90
42979;DHT22;28616;44.746;19.678;2023-04-24T05:42:19;14.70;99.90
42979;DHT22;28616;44.746;19.678;2023-04-24T05:44:45;14.80;99.90
42979;DHT22;28616;44.746;19.678;2023-04-24T05:47:11;14.90;99.90
42979;DHT22;28616;44.746;19.678;2023-04-24T05:49:37;14.90;99.90
42979;DHT22;28616;44.746;19.678;2023-04-24T05:52:02;15.00;99.90
42979;DHT22;28616;44.746;19.678;2023-04-24T05:54:51;15.10;99.90
42979;DHT22;28616;44.746;19.678;2023-04-24T05:57:20;15.20;99.90
42979;DHT22;28616;44.746;19.678;2023-04-24T05:59:46;15.20;99.90
42979;DHT22;28616;44.746;19.678;2023-04-24T06:02:15;15.20;99.90
42979;DHT22;28616;44.746;19.678;2023-04-24T06:04:41;15.30;99.90
42979;DHT22;28616;44.746;19.678;2023-04-24T06:07:10;15.40;99.90
42979;DHT22;28616;44.746;19.678;2023-04-24T06:09:38;15.60;99.90
42979;DHT22;28616;44.746;19.678;2023-04-24T06:12:04;15.50;99.90
42979;DHT22;28616;44.746;19.678;2023-04-24T06:14:30;15.50;99.90
42979;DHT22;28616;44.746;19.678;2023-04-24T06:16:56;15.50;99.90
42979;DHT22;28616;44.746;19.678;2023-04-24T06:19:21;15.50;99.90
42979;DHT22;28616;44.746;19.678;2023-04-24T06:21:47;15.50;99.90
42979;DHT22;28616;44.746;19.678;2023-04-24T06:24:14;15.50;99.90
42979;DHT22;28616;44.746;19.678;2023-04-24T06:26:41;15.60;99.90
42979;DHT22;28616;44.746;19.678;2023-04-24T06:29:07;15.60;99.90
42979;DHT22;28616;44.746;19.678;2023-04-24T06:31:33;15.70;99.90
42979;DHT22;28616;44.746;19.678;2023-04-24T06:34:03;15.70;99.90
42979;DHT22;28616;44.746;19.678;2023-04-24T06:36:29;15.70;99.90
42979;DHT22;28616;44.746;19.678;2023-04-24T06:38:56;15.70;99.90
42979;DHT22;28616;44.746;19.678;2023-04-24T06:41:22;15.70;99.90
42979;DHT22;28616;44.746;19.678;2023-04-24T06:43:48;15.70;99.90
42979;DHT22;28616;44.746;19.678;2023-04-24T06:46:14;15.70;99.90
42979;DHT22;28616;44.746;19.678;2023-04-24T06:48:40;15.80;99.90
42979;DHT22;28616;44.746;19.678;2023-04-24T06:51:06;15.70;99.90
42979;DHT22;28616;44.746;19.678;2023-04-24T06:53:35;15.60;99.90
42979;DHT22;28616;44.746;19.678;2023-04-24T06:56:00;15.60;99.90
42979;DHT22;28616;44.746;19.678;2023-04-24T06:58:26;15.60;99.90
42979;DHT22;28616;44.746;19.678;2023-04-24T07:00:52;15.60;99.90
42979;DHT22;28616;44.746;19.678;2023-04-24T07:03:18;15.50;99.90
42979;DHT22;28616;44.746;19.678;2023-04-24T07:05:46;15.50;99.90
42979;DHT22;28616;44.746;19.678;2023-04-24T07:08:13;15.50;99.90
42979;DHT22;28616;44.746;19.678;2023-04-24T07:10:39;15.50;99.90
42979;DHT22;28616;44.746;19.678;2023-04-24T07:13:05;15.40;99.90
42979;DHT22;28616;44.746;19.678;2023-04-24T07:15:32;15.40;99.90
42979;DHT22;28616;44.746;19.678;2023-04-24T07:17:58;15.30;99.90
42979;DHT22;28616;44.746;19.678;2023-04-24T07:20:24;15.30;99.90
42979;DHT22;28616;44.746;19.678;2023-04-24T07:22:50;15.30;99.90
42979;DHT22;28616;44.746;19.678;2023-04-24T07:25:17;15.20;99.90
42979;DHT22;28616;44.746;19.678;2023-04-24T07:27:43;15.30;99.90
42979;DHT22;28616;44.746;19.678;2023-04-24T07:30:14;15.30;99.90
42979;DHT22;28616;44.746;19.678;2023-04-24T07:32:40;15.20;99.90
42979;DHT22;28616;44.746;19.678;2023-04-24T07:35:08;15.30;99.90
42979;DHT22;28616;44.746;19.678;2023-04-24T07:37:35;15.30;99.90
42979;DHT22;28616;44.746;19.678;2023-04-24T07:40:01;15.30;99.90
42979;DHT22;28616;44.746;19.678;2023-04-24T07:42:28;15.30;99.90
42979;DHT22;28616;44.746;19.678;2023-04-24T07:44:56;15.30;99.90
42979;DHT22;28616;44.746;19.678;2023-04-24T07:47:21;15.30;99.90
42979;DHT22;28616;44.746;19.678;2023-04-24T07:49:47;15.30;99.90
42979;DHT22;28616;44.746;19.678;2023-04-24T07:52:13;15.40;99.90
42979;DHT22;28616;44.746;19.678;2023-04-24T07:54:39;15.50;99.90
42979;DHT22;28616;44.746;19.678;2023-04-24T07:57:05;15.60;99.90
42979;DHT22;28616;44.746;19.678;2023-04-24T07:59:32;15.70;99.90
42979;DHT22;28616;44.746;19.678;2023-04-24T08:01:58;15.80;99.90
42979;DHT22;28616;44.746;19.678;2023-04-24T08:04:27;15.90;99.90
42979;DHT22;28616;44.746;19.678;2023-04-24T08:06:56;15.80;99.90
42979;DHT22;28616;44.746;19.678;2023-04-24T08:09:21;15.80;99.90
42979;DHT22;28616;44.746;19.678;2023-04-24T08:11:47;15.80;99.90
42979;DHT22;28616;44.746;19.678;2023-04-24T08:14:13;15.80;99.90
42979;DHT22;28616;44.746;19.678;2023-04-24T08:16:40;15.80;99.90
42979;DHT22;28616;44.746;19.678;2023-04-24T08:19:06;15.70;99.90
42979;DHT22;28616;44.746;19.678;2023-04-24T08:21:33;15.70;99.90
42979;DHT22;28616;44.746;19.678;2023-04-24T08:23:59;15.70;99.90
42979;DHT22;28616;44.746;19.678;2023-04-24T08:26:25;15.70;99.90
42979;DHT22;28616;44.746;19.678;2023-04-24T08:28:50;15.70;99.90
42979;DHT22;28616;44.746;19.678;2023-04-24T08:31:16;15.70;99.90
42979;DHT22;28616;44.746;19.678;2023-04-24T08:33:42;15.70;99.90
42979;DHT22;28616;44.746;19.678;2023-04-24T08:36:10;15.80;99.90
42979;DHT22;28616;44.746;19.678;2023-04-24T08:38:36;15.80;99.90
42979;DHT22;28616;44.746;19.678;2023-04-24T08:41:02;15.70;99.90
42979;DHT22;28616;44.746;19.678;2023-04-24T08:43:28;15.70;99.90
42979;DHT22;28616;44.746;19.678;2023-04-24T08:45:56;15.80;99.90
42979;DHT22;28616;44.746;19.678;2023-04-24T08:48:23;15.80;99.90
42979;DHT22;28616;44.746;19.678;2023-04-24T08:50:53;15.90;99.90
42979;DHT22;28616;44.746;19.678;2023-04-24T08:53:19;16.00;99.90
42979;DHT22;28616;44.746;19.678;2023-04-24T08:55:48;16.00;99.90
42979;DHT22;28616;44.746;19.678;2023-04-24T08:58:15;16.00;99.90
42979;DHT22;28616;44.746;19.678;2023-04-24T09:00:42;16.00;99.90
42979;DHT22;28616;44.746;19.678;2023-04-24T09:03:13;16.00;99.90
42979;DHT22;28616;44.746;19.678;2023-04-24T09:05:46;16.00;99.90
42979;DHT22;28616;44.746;19.678;2023-04-24T09:08:19;16.00;99.90
42979;DHT22;28616;44.746;19.678;2023-04-24T09:10:45;16.00;99.90
42979;DHT22;28616;44.746;19.678;2023-04-24T09:13:11;16.10;99.90
42979;DHT22;28616;44.746;19.678;2023-04-24T09:15:38;16.00;99.90
42979;DHT22;28616;44.746;19.678;2023-04-24T09:18:05;16.10;99.90
42979;DHT22;28616;44.746;19.678;2023-04-24T09:20:31;16.20;99.90
42979;DHT22;28616;44.746;19.678;2023-04-24T09:22:57;16.30;99.90
42979;DHT22;28616;44.746;19.678;2023-04-24T09:25:34;16.40;99.90
42979;DHT22;28616;44.746;19.678;2023-04-24T09:28:03;16.50;99.90
42979;DHT22;28616;44.746;19.678;2023-04-24T09:30:29;16.70;99.90
42979;DHT22;28616;44.746;19.678;2023-04-24T09:33:14;16.90;99.90
42979;DHT22;28616;44.746;19.678;2023-04-24T09:35:52;16.90;99.90
42979;DHT22;28616;44.746;19.678;2023-04-24T09:38:36;16.90;99.90
42979;DHT22;28616;44.746;19.678;2023-04-24T09:41:07;16.70;99.90
42979;DHT22;28616;44.746;19.678;2023-04-24T09:43:34;16.70;99.90
42979;DHT22;28616;44.746;19.678;2023-04-24T09:46:12;16.70;99.90
42979;DHT22;28616;44.746;19.678;2023-04-24T09:48:38;16.70;99.90
42979;DHT22;28616;44.746;19.678;2023-04-24T09:51:05;16.50;99.90
42979;DHT22;28616;44.746;19.678;2023-04-24T09:53:33;16.50;99.90
42979;DHT22;28616;44.746;19.678;2023-04-24T09:56:09;16.50;99.90
42979;DHT22;28616;44.746;19.678;2023-04-24T09:58:38;16.60;99.90
42979;DHT22;28616;44.746;19.678;2023-04-24T10:01:08;16.70;99.90
42979;DHT22;28616;44.746;19.678;2023-04-24T10:03:34;16.90;99.90
42979;DHT22;28616;44.746;19.678;2023-04-24T10:06:04;17.10;99.90
42979;DHT22;28616;44.746;19.678;2023-04-24T10:08:36;17.20;99.90
42979;DHT22;28616;44.746;19.678;2023-04-24T10:11:05;17.30;99.90
42979;DHT22;28616;44.746;19.678;2023-04-24T10:13:38;17.20;99.90
42979;DHT22;28616;44.746;19.678;2023-04-24T10:16:06;17.10;99.90
42979;DHT22;28616;44.746;19.678;2023-04-24T10:18:33;17.20;99.90
42979;DHT22;28616;44.746;19.678;2023-04-24T10:21:01;17.20;99.90
42979;DHT22;28616;44.746;19.678;2023-04-24T10:23:28;17.20;99.90
42979;DHT22;28616;44.746;19.678;2023-04-24T10:25:55;17.20;99.90
42979;DHT22;28616;44.746;19.678;2023-04-24T10:28:28;17.20;99.90
42979;DHT22;28616;44.746;19.678;2023-04-24T10:30:55;17.20;99.90
42979;DHT22;28616;44.746;19.678;2023-04-24T10:33:22;17.30;99.90
42979;DHT22;28616;44.746;19.678;2023-04-24T10:35:51;17.30;99.90
42979;DHT22;28616;44.746;19.678;2023-04-24T10:38:22;17.30;99.90
42979;DHT22;28616;44.746;19.678;2023-04-24T10:40:57;17.40;99.90
42979;DHT22;28616;44.746;19.678;2023-04-24T10:43:33;17.60;99.90
42979;DHT22;28616;44.746;19.678;2023-04-24T10:46:04;17.80;99.90
42979;DHT22;28616;44.746;19.678;2023-04-24T10:48:31;18.10;99.90
42979;DHT22;28616;44.746;19.678;2023-04-24T10:50:58;18.10;99.90
42979;DHT22;28616;44.746;19.678;2023-04-24T10:53:27;18.10;99.90
42979;DHT22;28616;44.746;19.678;2023-04-24T10:56:03;18.10;99.90
42979;DHT22;28616;44.746;19.678;2023-04-24T10:58:53;18.00;99.90
42979;DHT22;28616;44.746;19.678;2023-04-24T11:01:32;17.90;99.90
42979;DHT22;28616;44.746;19.678;2023-04-24T11:04:00;17.90;99.90
42979;DHT22;28616;44.746;19.678;2023-04-24T11:06:36;18.00;99.90
42979;DHT22;28616;44.746;19.678;2023-04-24T11:09:04;18.10;99.90
42979;DHT22;28616;44.746;19.678;2023-04-24T11:11:32;18.20;99.90
42979;DHT22;28616;44.746;19.678;2023-04-24T11:16:44;18.50;99.90
42979;DHT22;28616;44.746;19.678;2023-04-24T11:21:49;18.80;99.90
42979;DHT22;28616;44.746;19.678;2023-04-24T11:29:52;19.80;95.10
42979;DHT22;28616;44.746;19.678;2023-04-24T11:37:40;19.50;95.60
42979;DHT22;28616;44.746;19.678;2023-04-24T11:40:11;19.30;94.40
42979;DHT22;28616;44.746;19.678;2023-04-24T11:42:44;19.30;94.80
42979;DHT22;28616;44.746;19.678;2023-04-24T11:45:15;19.20;95.10
42979;DHT22;28616;44.746;19.678;2023-04-24T11:47:43;19.30;94.70
42979;DHT22;28616;44.746;19.678;2023-04-24T11:50:12;19.40;94.50
42979;DHT22;28616;44.746;19.678;2023-04-24T11:52:45;19.30;93.30
42979;DHT22;28616;44.746;19.678;2023-04-24T11:57:43;19.30;94.30
42979;DHT22;28616;44.746;19.678;2023-04-24T12:02:44;19.30;95.00
42979;DHT22;28616;44.746;19.678;2023-04-24T12:05:26;19.30;94.90
42979;DHT22;28616;44.746;19.678;2023-04-24T12:07:52;19.50;95.20
42979;DHT22;28616;44.746;19.678;2023-04-24T12:10:23;19.70;95.30
42979;DHT22;28616;44.746;19.678;2023-04-24T12:12:50;19.70;95.70
42979;DHT22;28616;44.746;19.678;2023-04-24T12:15:20;19.70;94.70
42979;DHT22;28616;44.746;19.678;2023-04-24T12:17:46;19.70;95.20
42979;DHT22;28616;44.746;19.678;2023-04-24T12:20:13;19.70;93.80
42979;DHT22;28616;44.746;19.678;2023-04-24T12:22:52;19.60;94.10
42979;DHT22;28616;44.746;19.678;2023-04-24T12:25:31;19.70;94.30
42979;DHT22;28616;44.746;19.678;2023-04-24T12:30:29;20.10;94.50
42979;DHT22;28616;44.746;19.678;2023-04-24T12:32:58;20.20;94.00
42979;DHT22;28616;44.746;19.678;2023-04-24T12:35:26;20.40;92.40
42979;DHT22;28616;44.746;19.678;2023-04-24T12:37:52;20.50;92.10
42979;DHT22;28616;44.746;19.678;2023-04-24T12:40:19;20.50;90.10
42979;DHT22;28616;44.746;19.678;2023-04-24T12:42:50;20.40;87.60
42979;DHT22;28616;44.746;19.678;2023-04-24T12:45:18;20.40;84.50
42979;DHT22;28616;44.746;19.678;2023-04-24T12:47:45;20.30;84.90
42979;DHT22;28616;44.746;19.678;2023-04-24T12:50:13;20.40;84.20
42979;DHT22;28616;44.746;19.678;2023-04-24T12:52:40;20.50;84.60
42979;DHT22;28616;44.746;19.678;2023-04-24T12:55:07;20.40;83.40
42979;DHT22;28616;44.746;19.678;2023-04-24T12:57:38;20.40;83.20
42979;DHT22;28616;44.746;19.678;2023-04-24T13:00:06;20.30;84.00
42979;DHT22;28616;44.746;19.678;2023-04-24T13:02:33;20.20;83.10
42979;DHT22;28616;44.746;19.678;2023-04-24T13:04:59;20.20;83.20
42979;DHT22;28616;44.746;19.678;2023-04-24T13:07:26;20.00;83.00
42979;DHT22;28616;44.746;19.678;2023-04-24T13:09:53;20.00;84.90
42979;DHT22;28616;44.746;19.678;2023-04-24T13:12:19;20.10;85.90
42979;DHT22;28616;44.746;19.678;2023-04-24T13:14:45;20.10;84.70
42979;DHT22;28616;44.746;19.678;2023-04-24T13:17:11;20.10;84.70
42979;DHT22;28616;44.746;19.678;2023-04-24T13:19:42;20.10;84.40
42979;DHT22;28616;44.746;19.678;2023-04-24T13:22:12;20.10;85.00
42979;DHT22;28616;44.746;19.678;2023-04-24T13:24:39;20.10;86.00
42979;DHT22;28616;44.746;19.678;2023-04-24T13:27:08;20.20;87.40
42979;DHT22;28616;44.746;19.678;2023-04-24T13:29:35;20.20;85.30
42979;DHT22;28616;44.746;19.678;2023-04-24T13:32:01;20.10;83.80
42979;DHT22;28616;44.746;19.678;2023-04-24T13:34:27;20.00;82.50
42979;DHT22;28616;44.746;19.678;2023-04-24T13:36:54;19.90;84.00
42979;DHT22;28616;44.746;19.678;2023-04-24T13:39:22;19.90;83.70
42979;DHT22;28616;44.746;19.678;2023-04-24T13:41:48;19.90;84.70
42979;DHT22;28616;44.746;19.678;2023-04-24T13:44:15;20.00;83.60
42979;DHT22;28616;44.746;19.678;2023-04-24T13:46:42;20.00;84.00
42979;DHT22;28616;44.746;19.678;2023-04-24T13:49:09;20.00;83.90
42979;DHT22;28616;44.746;19.678;2023-04-24T13:51:35;20.00;83.30
42979;DHT22;28616;44.746;19.678;2023-04-24T13:54:01;20.10;83.60
42979;DHT22;28616;44.746;19.678;2023-04-24T13:56:27;20.30;85.40
42979;DHT22;28616;44.746;19.678;2023-04-24T13:58:53;20.20;82.40
42979;DHT22;28616;44.746;19.678;2023-04-24T14:01:21;20.10;82.50
42979;DHT22;28616;44.746;19.678;2023-04-24T14:03:51;20.00;83.50
42979;DHT22;28616;44.746;19.678;2023-04-24T14:06:17;20.00;82.50
42979;DHT22;28616;44.746;19.678;2023-04-24T14:08:43;19.90;84.20
42979;DHT22;28616;44.746;19.678;2023-04-24T14:11:15;20.10;88.30
42979;DHT22;28616;44.746;19.678;2023-04-24T14:13:42;20.20;85.90
42979;DHT22;28616;44.746;19.678;2023-04-24T14:16:08;20.30;86.10
42979;DHT22;28616;44.746;19.678;2023-04-24T14:18:34;20.30;86.30
42979;DHT22;28616;44.746;19.678;2023-04-24T14:21:00;20.30;85.50
42979;DHT22;28616;44.746;19.678;2023-04-24T14:23:27;20.30;86.20
42979;DHT22;28616;44.746;19.678;2023-04-24T14:25:53;20.30;87.30
42979;DHT22;28616;44.746;19.678;2023-04-24T14:28:19;20.30;86.90
42979;DHT22;28616;44.746;19.678;2023-04-24T14:30:46;20.30;85.80
42979;DHT22;28616;44.746;19.678;2023-04-24T14:33:12;20.50;84.60
42979;DHT22;28616;44.746;19.678;2023-04-24T14:43:01;21.70;80.90
42979;DHT22;28616;44.746;19.678;2023-04-24T14:45:27;21.70;78.10
42979;DHT22;28616;44.746;19.678;2023-04-24T14:50:19;22.30;77.90
42979;DHT22;28616;44.746;19.678;2023-04-24T14:52:45;22.40;76.50
42979;DHT22;28616;44.746;19.678;2023-04-24T14:55:11;22.40;74.00
42979;DHT22;28616;44.746;19.678;2023-04-24T14:57:39;22.60;74.50
42979;DHT22;28616;44.746;19.678;2023-04-24T15:00:08;22.50;73.10
42979;DHT22;28616;44.746;19.678;2023-04-24T15:02:36;22.40;73.70
42979;DHT22;28616;44.746;19.678;2023-04-24T15:05:06;22.30;72.40
42979;DHT22;28616;44.746;19.678;2023-04-24T15:07:32;22.20;72.40
42979;DHT22;28616;44.746;19.678;2023-04-24T15:09:58;22.00;72.30
42979;DHT22;28616;44.746;19.678;2023-04-24T15:12:24;21.70;73.40
42979;DHT22;28616;44.746;19.678;2023-04-24T15:14:50;21.50;73.90
42979;DHT22;28616;44.746;19.678;2023-04-24T15:17:16;21.30;75.30
42979;DHT22;28616;44.746;19.678;2023-04-24T15:19:41;21.20;74.80
42979;DHT22;28616;44.746;19.678;2023-04-24T15:22:07;21.10;75.20
42979;DHT22;28616;44.746;19.678;2023-04-24T15:24:33;20.90;75.60
42979;DHT22;28616;44.746;19.678;2023-04-24T15:26:59;20.90;77.50
42979;DHT22;28616;44.746;19.678;2023-04-24T15:29:27;20.80;77.70
42979;DHT22;28616;44.746;19.678;2023-04-24T15:31:53;20.70;78.80
42979;DHT22;28616;44.746;19.678;2023-04-24T15:34:18;20.60;78.60
42979;DHT22;28616;44.746;19.678;2023-04-24T15:36:44;20.50;79.50
42979;DHT22;28616;44.746;19.678;2023-04-24T15:39:10;20.40;79.60
42979;DHT22;28616;44.746;19.678;2023-04-24T15:41:37;20.30;80.60
42979;DHT22;28616;44.746;19.678;2023-04-24T15:44:02;20.10;80.80
42979;DHT22;28616;44.746;19.678;2023-04-24T15:46:28;20.00;81.30
42979;DHT22;28616;44.746;19.678;2023-04-24T15:48:54;20.00;82.30
42979;DHT22;28616;44.746;19.678;2023-04-24T15:51:20;19.90;83.50
42979;DHT22;28616;44.746;19.678;2023-04-24T15:53:45;19.90;83.50